Time;durP1;ratioP1;P1;durP2;ratioP2;P2;SDS_P1;SDS_P2;PMS_P1;PMS_P2;Temp;Humidity;BMP_temperature;BMP_pressure;BME280_temperature;BME280_humidity;BME280_pressure;Samples;Min_cycle;Max_cycle;Signal;HPM_P1;HPM_P2
2023/01/11 04:02:16;;;;;;;;;;;10.70;99.90;;;;;;5401323;23;19969;-72
2023/01/11 04:04:42;;;;;;;;;;;10.60;99.90;;;;;;4973888;28;19965;-71
2023/01/11 04:07:09;;;;;;;;;;;10.60;99.90;;;;;;4985131;28;19933;-71
2023/01/11 04:09:35;;;;;;;;;;;10.60;99.90;;;;;;4988186;28;20029;-70
2023/01/11 04:12:02;;;;;;;;;;;10.70;99.90;;;;;;4972806;28;19973;-71
2023/01/11 04:14:29;;;;;;;;;;;10.70;99.90;;;;;;4973110;28;20044;-70
2023/01/11 04:16:55;;;;;;;;;;;10.60;99.90;;;;;;4972884;28;19961;-71
2023/01/11 04:19:23;;;;;;;;;;;10.70;99.90;;;;;;4972958;28;19932;-70
2023/01/11 04:21:50;;;;;;;;;;;10.70;99.90;;;;;;4974408;28;20016;-70
2023/01/11 04:24:17;;;;;;;;;;;10.70;99.90;;;;;;4973111;28;20024;-70
2023/01/11 04:26:44;;;;;;;;;;;10.70;99.90;;;;;;4973166;28;20360;-71
2023/01/11 04:29:10;;;;;;;;;;;10.70;99.90;;;;;;4974118;28;20439;-70
2023/01/11 04:31:37;;;;;;;;;;;10.70;99.90;;;;;;4974148;28;20016;-70
2023/01/11 04:34:03;;;;;;;;;;;10.80;99.90;;;;;;4973121;28;19932;-69
2023/01/11 04:36:32;;;;;;;;;;;10.80;99.90;;;;;;4972822;28;19973;-70
2023/01/11 04:38:59;;;;;;;;;;;10.80;99.90;;;;;;4972695;28;20377;-70
2023/01/11 04:44:10;;;;;;;;;;;10.90;99.90;;;;;;4973061;28;20345;-70
2023/01/11 04:46:36;;;;;;;;;;;10.80;99.90;;;;;;4973021;28;19957;-71
2023/01/11 04:49:03;;;;;;;;;;;10.90;99.90;;;;;;4973796;28;19965;-70
2023/01/11 04:51:30;;;;;;;;;;;10.90;99.90;;;;;;4981548;28;20443;-69
2023/01/11 04:53:58;;;;;;;;;;;10.90;99.90;;;;;;4973215;28;19926;-70
2023/01/11 04:56:25;;;;;;;;;;;11.00;99.90;;;;;;4976626;28;19949;-69
2023/01/11 04:58:51;;;;;;;;;;;11.10;99.90;;;;;;4980805;28;19926;-71
2023/01/11 05:01:19;;;;;;;;;;;11.10;99.90;;;;;;4980621;28;20443;-70
2023/01/11 05:03:46;;;;;;;;;;;11.10;99.90;;;;;;4972380;28;19926;-70
2023/01/11 05:06:13;;;;;;;;;;;11.10;99.90;;;;;;4972440;28;19926;-70
2023/01/11 05:08:44;;;;;;;;;;;11.10;99.90;;;;;;4972521;28;19934;-69
2023/01/11 05:11:12;;;;;;;;;;;11.10;99.90;;;;;;4972332;28;19977;-69
2023/01/11 05:13:42;;;;;;;;;;;11.00;99.90;;;;;;4972404;28;19977;-70
2023/01/11 05:16:09;;;;;;;;;;;10.90;99.90;;;;;;4972434;28;20404;-69
2023/01/11 05:18:36;;;;;;;;;;;10.80;99.90;;;;;;4972354;28;19973;-68
2023/01/11 05:21:04;;;;;;;;;;;10.80;99.90;;;;;;4973396;28;20020;-70
2023/01/11 05:23:32;;;;;;;;;;;10.80;99.90;;;;;;4975725;28;19945;-70
2023/01/11 05:25:59;;;;;;;;;;;10.80;99.90;;;;;;4972557;28;20025;-69
2023/01/11 05:28:27;;;;;;;;;;;10.80;99.90;;;;;;4970730;28;19980;-70
2023/01/11 05:30:54;;;;;;;;;;;10.70;99.90;;;;;;4965468;28;20009;-69
2023/01/11 05:33:20;;;;;;;;;;;10.70;99.90;;;;;;4965746;28;19930;-70
2023/01/11 05:35:47;;;;;;;;;;;10.70;99.90;;;;;;4975191;28;19933;-69
2023/01/11 05:38:14;;;;;;;;;;;10.70;99.90;;;;;;4989823;28;19926;-70
2023/01/11 05:40:41;;;;;;;;;;;10.70;99.90;;;;;;4976810;28;19937;-70
2023/01/11 05:43:07;;;;;;;;;;;10.70;99.90;;;;;;4969136;28;19986;-69
2023/01/11 05:45:37;;;;;;;;;;;10.80;99.90;;;;;;4971919;28;20301;-69
2023/01/11 05:48:04;;;;;;;;;;;10.80;99.90;;;;;;4971906;28;20415;-70
2023/01/11 05:50:30;;;;;;;;;;;10.80;99.90;;;;;;4979539;28;20352;-70
2023/01/11 05:52:58;;;;;;;;;;;10.80;99.90;;;;;;4971728;28;19973;-70
2023/01/11 05:55:25;;;;;;;;;;;10.80;99.90;;;;;;4972117;28;19926;-71
2023/01/11 05:57:52;;;;;;;;;;;10.70;99.90;;;;;;4983712;28;19931;-71
2023/01/11 06:00:19;;;;;;;;;;;10.70;99.90;;;;;;4987906;28;19926;-72
2023/01/11 06:02:47;;;;;;;;;;;10.70;99.90;;;;;;4969466;28;19926;-74
2023/01/11 06:05:15;;;;;;;;;;;10.80;99.90;;;;;;4968034;28;19926;-72
2023/01/11 06:07:42;;;;;;;;;;;10.80;99.90;;;;;;4972859;28;19934;-75
2023/01/11 06:10:10;;;;;;;;;;;10.70;99.90;;;;;;4975140;28;19930;-76
2023/01/11 06:12:36;;;;;;;;;;;10.70;99.90;;;;;;4981040;28;19926;-75
2023/01/11 06:15:04;;;;;;;;;;;10.70;99.90;;;;;;4974797;28;19927;-78
2023/01/11 06:17:30;;;;;;;;;;;10.70;99.90;;;;;;4983490;28;19984;-75
2023/01/11 06:19:59;;;;;;;;;;;10.70;99.90;;;;;;4983461;28;19992;-75
2023/01/11 06:22:26;;;;;;;;;;;10.80;99.90;;;;;;4978282;28;19980;-79
2023/01/11 06:24:52;;;;;;;;;;;10.70;99.90;;;;;;4972222;28;19933;-74
2023/01/11 06:27:19;;;;;;;;;;;10.80;99.90;;;;;;4974294;28;19930;-74
2023/01/11 06:29:46;;;;;;;;;;;10.80;99.90;;;;;;4973762;28;19933;-76
2023/01/11 06:32:13;;;;;;;;;;;10.80;99.90;;;;;;4974538;28;20381;-73
2023/01/11 06:34:40;;;;;;;;;;;10.80;99.90;;;;;;4975254;28;20313;-73
2023/01/11 06:37:08;;;;;;;;;;;10.80;99.90;;;;;;4974329;28;19957;-75
2023/01/11 06:39:35;;;;;;;;;;;10.90;99.90;;;;;;4973416;28;19930;-74
2023/01/11 06:42:02;;;;;;;;;;;10.90;99.90;;;;;;4978561;28;19930;-74
2023/01/11 06:44:28;;;;;;;;;;;11.00;99.90;;;;;;4980119;28;19957;-74
2023/01/11 06:46:55;;;;;;;;;;;10.90;99.90;;;;;;4974051;28;20355;-75
2023/01/11 06:49:22;;;;;;;;;;;10.90;99.90;;;;;;4977853;28;19930;-73
2023/01/11 06:51:49;;;;;;;;;;;10.90;99.90;;;;;;4978604;28;19973;-70
2023/01/11 06:54:20;;;;;;;;;;;10.90;99.90;;;;;;4973863;28;19989;-73
2023/01/11 06:56:47;;;;;;;;;;;10.80;99.90;;;;;;4973512;28;19934;-71
2023/01/11 06:59:14;;;;;;;;;;;10.80;99.90;;;;;;4973180;28;20348;-71
2023/01/11 07:01:41;;;;;;;;;;;10.80;99.90;;;;;;4973735;28;19926;-71
2023/01/11 07:04:07;;;;;;;;;;;10.90;99.90;;;;;;4973196;28;19976;-71
2023/01/11 07:06:34;;;;;;;;;;;10.90;99.90;;;;;;4973110;28;19934;-72
2023/01/11 07:09:01;;;;;;;;;;;10.90;99.90;;;;;;4972524;28;19926;-71
2023/01/11 07:11:30;;;;;;;;;;;10.90;99.90;;;;;;4973212;28;20356;-71
2023/01/11 07:13:57;;;;;;;;;;;10.90;99.90;;;;;;4971932;28;19926;-70
2023/01/11 07:16:24;;;;;;;;;;;10.90;99.90;;;;;;4971762;28;19985;-71
2023/01/11 07:18:51;;;;;;;;;;;10.80;99.90;;;;;;4971127;28;19937;-71
2023/01/11 07:21:17;;;;;;;;;;;10.80;99.90;;;;;;4971230;28;19926;-71
2023/01/11 07:23:44;;;;;;;;;;;10.80;99.90;;;;;;4971616;28;19930;-69
2023/01/11 07:26:13;;;;;;;;;;;10.80;99.90;;;;;;4978838;28;19930;-71
2023/01/11 07:28:41;;;;;;;;;;;10.80;99.90;;;;;;4972504;28;19973;-71
2023/01/11 07:31:08;;;;;;;;;;;10.70;99.90;;;;;;4980407;28;19938;-71
2023/01/11 07:33:34;;;;;;;;;;;10.70;99.90;;;;;;4973057;28;20345;-72
2023/01/11 07:36:04;;;;;;;;;;;10.70;99.90;;;;;;4980457;28;20397;-72
2023/01/11 07:38:30;;;;;;;;;;;10.60;99.90;;;;;;4972612;28;20385;-71
2023/01/11 07:40:57;;;;;;;;;;;10.60;99.90;;;;;;4980075;28;19930;-72
2023/01/11 07:43:23;;;;;;;;;;;10.60;99.90;;;;;;4973083;28;19961;-72
2023/01/11 07:45:52;;;;;;;;;;;10.50;99.90;;;;;;4969321;28;20012;-71
2023/01/11 07:48:23;;;;;;;;;;;10.50;99.90;;;;;;4979968;28;19926;-72
2023/01/11 07:50:51;;;;;;;;;;;10.50;99.90;;;;;;4972367;28;20022;-71
2023/01/11 07:53:18;;;;;;;;;;;10.40;99.90;;;;;;4972599;28;19933;-71
2023/01/11 07:55:44;;;;;;;;;;;10.40;99.90;;;;;;4979919;28;19989;-72
2023/01/11 07:58:12;;;;;;;;;;;10.40;99.90;;;;;;4972350;28;19973;-72
2023/01/11 08:00:40;;;;;;;;;;;10.40;99.90;;;;;;4969396;28;20483;-71
2023/01/11 08:03:08;;;;;;;;;;;10.40;99.90;;;;;;4979951;28;19926;-71
2023/01/11 08:05:35;;;;;;;;;;;10.40;99.90;;;;;;4972643;28;20278;-71
2023/01/11 08:08:02;;;;;;;;;;;10.40;99.90;;;;;;4980000;28;19980;-71
2023/01/11 08:10:28;;;;;;;;;;;10.40;99.90;;;;;;4971948;28;19949;-71
2023/01/11 08:15:41;;;;;;;;;;;10.40;99.90;;;;;;4968545;28;19923;-71
2023/01/11 08:18:10;;;;;;;;;;;10.40;99.90;;;;;;4972068;28;19926;-72
2023/01/11 08:20:37;;;;;;;;;;;10.40;99.90;;;;;;4977068;28;19958;-71
2023/01/11 08:23:04;;;;;;;;;;;10.40;99.90;;;;;;4972052;28;20312;-72
2023/01/11 08:25:31;;;;;;;;;;;10.40;99.90;;;;;;4972191;28;20025;-72
2023/01/11 08:27:59;;;;;;;;;;;10.40;99.90;;;;;;4971947;28;19926;-71
2023/01/11 08:30:25;;;;;;;;;;;10.40;99.90;;;;;;4971619;28;19926;-72
2023/01/11 08:32:52;;;;;;;;;;;10.40;99.90;;;;;;4968693;28;20364;-72
2023/01/11 08:35:21;;;;;;;;;;;10.40;99.90;;;;;;4969436;28;19930;-71
2023/01/11 08:37:48;;;;;;;;;;;10.40;99.90;;;;;;4972172;28;20122;-71
2023/01/11 08:40:15;;;;;;;;;;;10.40;99.90;;;;;;4971831;28;19934;-72
2023/01/11 08:42:41;;;;;;;;;;;10.40;99.90;;;;;;4967731;28;19926;-71
2023/01/11 08:45:08;;;;;;;;;;;10.40;99.90;;;;;;4971955;28;19926;-71
2023/01/11 08:47:35;;;;;;;;;;;10.40;99.90;;;;;;4972126;28;19927;-72
2023/01/11 08:50:02;;;;;;;;;;;10.40;99.90;;;;;;4971226;28;19933;-72
2023/01/11 08:52:30;;;;;;;;;;;10.40;99.90;;;;;;4971706;28;19926;-71
2023/01/11 08:54:57;;;;;;;;;;;10.50;99.90;;;;;;4971676;28;19984;-71
2023/01/11 08:57:23;;;;;;;;;;;10.50;99.90;;;;;;4976360;28;20325;-71
2023/01/11 08:59:50;;;;;;;;;;;10.50;99.90;;;;;;4971042;28;20468;-71
2023/01/11 09:02:17;;;;;;;;;;;10.50;99.90;;;;;;4978740;28;20389;-71
2023/01/11 09:04:44;;;;;;;;;;;10.50;99.90;;;;;;4971529;28;19980;-71
2023/01/11 09:07:10;;;;;;;;;;;10.50;99.90;;;;;;4976965;28;19926;-71
2023/01/11 09:09:38;;;;;;;;;;;10.40;99.90;;;;;;4970988;28;19973;-72
2023/01/11 09:12:05;;;;;;;;;;;10.40;99.90;;;;;;4977431;28;19926;-71
2023/01/11 09:14:33;;;;;;;;;;;10.40;99.90;;;;;;4980313;28;19926;-72
2023/01/11 09:16:59;;;;;;;;;;;10.40;99.90;;;;;;4974076;28;19926;-72
2023/01/11 09:19:26;;;;;;;;;;;10.40;99.90;;;;;;4970545;28;20416;-71
2023/01/11 09:21:56;;;;;;;;;;;10.40;99.90;;;;;;4971220;28;19933;-71
2023/01/11 09:24:22;;;;;;;;;;;10.40;99.90;;;;;;4967918;28;19926;-72
2023/01/11 09:26:50;;;;;;;;;;;10.30;99.90;;;;;;4968477;28;20069;-71
2023/01/11 09:29:17;;;;;;;;;;;10.30;99.90;;;;;;4975514;28;19930;-72
2023/01/11 09:31:44;;;;;;;;;;;10.30;99.90;;;;;;4970842;28;19930;-72
2023/01/11 09:34:11;;;;;;;;;;;10.30;99.90;;;;;;4980939;28;20016;-71
2023/01/11 09:36:39;;;;;;;;;;;10.30;99.90;;;;;;4977291;28;19926;-70
2023/01/11 09:39:08;;;;;;;;;;;10.30;99.90;;;;;;4970570;28;19926;-72
2023/01/11 09:41:43;;;;;;;;;;;10.30;99.90;;;;;;4978294;28;20022;-71
2023/01/11 09:44:15;;;;;;;;;;;10.30;99.90;;;;;;4987062;28;19972;-72
2023/01/11 09:46:43;;;;;;;;;;;10.30;99.90;;;;;;4978813;28;19926;-71
2023/01/11 09:49:13;;;;;;;;;;;10.30;99.90;;;;;;4970335;28;19926;-71
2023/01/11 09:51:40;;;;;;;;;;;10.30;99.90;;;;;;4970516;28;20389;-71
2023/01/11 09:54:10;;;;;;;;;;;10.30;99.90;;;;;;4970717;28;19965;-70
2023/01/11 09:56:45;;;;;;;;;;;10.30;99.90;;;;;;4970770;28;19933;-71
2023/01/11 09:59:19;;;;;;;;;;;10.20;99.90;;;;;;4979454;28;19927;-71
2023/01/11 10:01:49;;;;;;;;;;;10.20;99.90;;;;;;4970554;28;19977;-72
2023/01/11 10:04:36;;;;;;;;;;;10.20;99.90;;;;;;4970448;28;19926;-72
2023/01/11 10:07:15;;;;;;;;;;;10.20;99.90;;;;;;4971015;28;20433;-71
2023/01/11 10:09:47;;;;;;;;;;;10.20;99.90;;;;;;4984931;28;20278;-72
2023/01/11 10:12:18;;;;;;;;;;;10.20;99.90;;;;;;4974423;28;20404;-71
2023/01/11 10:14:53;;;;;;;;;;;10.20;99.90;;;;;;4966770;28;20313;-72
2023/01/11 10:17:25;;;;;;;;;;;10.20;99.90;;;;;;4965315;28;20393;-72
2023/01/11 10:19:56;;;;;;;;;;;10.20;99.90;;;;;;4967786;28;20341;-69
2023/01/11 10:22:26;;;;;;;;;;;10.20;99.90;;;;;;4962985;28;19934;-71
2023/01/11 10:25:00;;;;;;;;;;;10.20;99.90;;;;;;4966900;28;19926;-71
2023/01/11 10:27:30;;;;;;;;;;;10.10;99.90;;;;;;4983458;28;20409;-72
2023/01/11 10:30:22;;;;;;;;;;;10.10;99.90;;;;;;4978602;28;19985;-69
2023/01/11 10:33:02;;;;;;;;;;;10.10;99.90;;;;;;4974502;28;19929;-71
2023/01/11 10:35:44;;;;;;;;;;;10.10;99.90;;;;;;4967479;28;19977;-71
2023/01/11 10:38:41;;;;;;;;;;;10.10;99.90;;;;;;4973295;28;20459;-72
2023/01/11 10:41:18;;;;;;;;;;;10.30;99.90;;;;;;4968977;28;19927;-72
2023/01/11 10:43:47;;;;;;;;;;;10.50;99.90;;;;;;4969767;28;19926;-72
2023/01/11 10:46:17;;;;;;;;;;;11.10;99.90;;;;;;4976531;28;20017;-71
2023/01/11 10:48:44;;;;;;;;;;;11.50;99.90;;;;;;4970164;28;19930;-71
2023/01/11 10:51:26;;;;;;;;;;;11.30;99.90;;;;;;4969677;28;20412;-71
2023/01/11 10:54:00;;;;;;;;;;;10.60;99.90;;;;;;4975780;28;20009;-71
2023/01/11 10:56:32;;;;;;;;;;;10.40;99.90;;;;;;4986828;28;19926;-71
2023/01/11 10:59:06;;;;;;;;;;;10.30;99.90;;;;;;4974659;28;20452;-71
2023/01/11 11:01:44;;;;;;;;;;;10.30;99.90;;;;;;4975186;28;19930;-71
2023/01/11 11:04:17;;;;;;;;;;;10.40;99.90;;;;;;4972550;28;19926;-70
2023/01/11 11:06:46;;;;;;;;;;;10.50;99.90;;;;;;4979402;28;20353;-72
2023/01/11 11:09:20;;;;;;;;;;;10.60;99.90;;;;;;4972343;28;19926;-70
2023/01/11 11:11:52;;;;;;;;;;;10.80;99.90;;;;;;4981609;28;19974;-71
2023/01/11 11:14:21;;;;;;;;;;;12.60;99.90;;;;;;4973625;28;19933;-70
2023/01/11 11:16:54;;;;;;;;;;;12.40;99.90;;;;;;4973320;28;19926;-71
2023/01/11 11:19:22;;;;;;;;;;;12.90;99.90;;;;;;4976605;28;20352;-72
2023/01/11 11:21:51;;;;;;;;;;;13.30;99.90;;;;;;4973212;28;19926;-71
2023/01/11 11:24:21;;;;;;;;;;;12.20;99.90;;;;;;4973000;28;19933;-71
2023/01/11 11:26:51;;;;;;;;;;;14.20;99.90;;;;;;4973080;28;19989;-72
2023/01/11 11:29:20;;;;;;;;;;;13.30;99.90;;;;;;4972623;28;19934;-72
2023/01/11 11:31:47;;;;;;;;;;;12.70;99.90;;;;;;4973088;28;20356;-72
2023/01/11 11:34:17;;;;;;;;;;;13.20;99.90;;;;;;4981776;28;20384;-72
2023/01/11 11:36:45;;;;;;;;;;;12.60;99.90;;;;;;4970402;28;19926;-71
2023/01/11 11:39:20;;;;;;;;;;;11.60;99.90;;;;;;4972193;28;20385;-71
2023/01/11 11:41:48;;;;;;;;;;;12.10;99.90;;;;;;4973324;28;19942;-72
2023/01/11 11:44:16;;;;;;;;;;;11.60;99.90;;;;;;4978010;28;19934;-72
2023/01/11 11:46:55;;;;;;;;;;;11.00;99.90;;;;;;4971896;28;20356;-72
2023/01/11 11:49:24;;;;;;;;;;;11.30;99.90;;;;;;4984551;28;20463;-72
2023/01/11 11:51:52;;;;;;;;;;;12.40;99.90;;;;;;4964714;28;20182;-72
2023/01/11 11:54:21;;;;;;;;;;;13.60;99.90;;;;;;4972515;28;19926;-72
2023/01/11 11:56:48;;;;;;;;;;;15.20;99.90;;;;;;4973008;28;19941;-72
2023/01/11 11:59:17;;;;;;;;;;;17.50;99.90;;;;;;4971938;28;19977;-73
2023/01/11 12:01:46;;;;;;;;;;;19.00;99.90;;;;;;4980889;28;19926;-70
2023/01/11 12:04:15;;;;;;;;;;;19.70;99.90;;;;;;4972253;28;19926;-72
2023/01/11 12:06:44;;;;;;;;;;;18.80;99.90;;;;;;4980795;28;20345;-73
2023/01/11 12:09:12;;;;;;;;;;;19.70;99.90;;;;;;4972102;28;19973;-72
2023/01/11 12:11:40;;;;;;;;;;;20.60;99.90;;;;;;4972187;28;19933;-72
2023/01/11 12:14:16;;;;;;;;;;;20.50;99.90;;;;;;4970091;28;20114;-73
2023/01/11 12:16:44;;;;;;;;;;;19.90;99.90;;;;;;4981025;28;19926;-72
2023/01/11 12:19:24;;;;;;;;;;;20.20;99.90;;;;;;4971386;28;20356;-73
2023/01/11 12:21:52;;;;;;;;;;;18.90;99.90;;;;;;4976476;28;20340;-74
2023/01/11 12:24:21;;;;;;;;;;;19.80;99.90;;;;;;4971927;28;19933;-72
2023/01/11 12:27:00;;;;;;;;;;;18.70;99.90;;;;;;4972147;28;19973;-73
2023/01/11 12:29:40;;;;;;;;;;;19.00;99.90;;;;;;4971737;28;19930;-72
2023/01/11 12:32:19;;;;;;;;;;;19.20;99.90;;;;;;4970030;28;19958;-72
2023/01/11 12:34:57;;;;;;;;;;;18.10;99.90;;;;;;4974859;28;19926;-72
2023/01/11 12:37:33;;;;;;;;;;;17.80;99.90;;;;;;4971846;28;20393;-72
2023/01/11 12:40:06;;;;;;;;;;;17.70;99.90;;;;;;4968604;28;20353;-72
2023/01/11 12:42:41;;;;;;;;;;;19.10;99.90;;;;;;4977938;28;20385;-72
2023/01/11 12:45:15;;;;;;;;;;;18.20;99.90;;;;;;4965870;28;19927;-72
2023/01/11 12:48:01;;;;;;;;;;;19.20;99.90;;;;;;4977130;28;19930;-72
2023/01/11 12:50:30;;;;;;;;;;;18.60;99.90;;;;;;4968121;28;19930;-72
2023/01/11 12:53:04;;;;;;;;;;;19.30;99.90;;;;;;4979089;28;19926;-72
2023/01/11 12:55:35;;;;;;;;;;;20.80;99.90;;;;;;4971402;28;20344;-73
2023/01/11 12:58:07;;;;;;;;;;;19.90;99.90;;;;;;4971294;28;19926;-72
2023/01/11 13:00:42;;;;;;;;;;;19.70;99.90;;;;;;4973934;28;19926;-72
2023/01/11 13:03:19;;;;;;;;;;;20.30;99.90;;;;;;4978661;28;19930;-73
2023/01/11 13:05:52;;;;;;;;;;;19.40;99.90;;;;;;4971464;28;19926;-72
2023/01/11 13:08:24;;;;;;;;;;;18.10;99.90;;;;;;4975608;28;20397;-72
2023/01/11 13:10:54;;;;;;;;;;;18.00;99.90;;;;;;4971187;28;19926;-72
2023/01/11 13:13:24;;;;;;;;;;;17.60;99.90;;;;;;4983653;28;19957;-72
2023/01/11 13:15:55;;;;;;;;;;;17.20;99.90;;;;;;4971518;28;19930;-72
2023/01/11 13:18:26;;;;;;;;;;;16.60;99.90;;;;;;4982636;28;19926;-72
2023/01/11 13:20:56;;;;;;;;;;;14.30;99.90;;;;;;4974977;28;20304;-72
2023/01/11 13:23:31;;;;;;;;;;;13.40;99.90;;;;;;4968128;28;19927;-70
2023/01/11 13:26:01;;;;;;;;;;;12.70;99.90;;;;;;4985393;28;20304;-72
2023/01/11 13:28:29;;;;;;;;;;;13.20;99.90;;;;;;4971158;28;19961;-72
2023/01/11 13:30:56;;;;;;;;;;;12.30;99.90;;;;;;4971133;28;19992;-72
2023/01/11 13:33:24;;;;;;;;;;;12.00;99.90;;;;;;4971115;28;19930;-72
2023/01/11 13:35:54;;;;;;;;;;;11.70;99.90;;;;;;4976835;28;19926;-71
2023/01/11 13:38:27;;;;;;;;;;;11.40;99.90;;;;;;4966345;28;19997;-72
2023/01/11 13:40:58;;;;;;;;;;;11.50;99.90;;;;;;4967229;28;19977;-72
2023/01/11 13:43:30;;;;;;;;;;;12.20;99.90;;;;;;4967477;28;19949;-72
2023/01/11 13:46:02;;;;;;;;;;;11.90;99.90;;;;;;4972137;28;19926;-72
2023/01/11 13:48:31;;;;;;;;;;;11.70;99.90;;;;;;4967642;28;19926;-72
2023/01/11 13:51:01;;;;;;;;;;;11.50;99.90;;;;;;4970704;28;19985;-71
2023/01/11 13:53:36;;;;;;;;;;;11.50;99.90;;;;;;4978375;28;20336;-72
2023/01/11 13:56:07;;;;;;;;;;;11.60;99.90;;;;;;4970731;28;19981;-72
2023/01/11 13:58:36;;;;;;;;;;;11.60;99.90;;;;;;4972666;28;19926;-72
2023/01/11 14:01:07;;;;;;;;;;;11.30;99.90;;;;;;4975074;28;20345;-72
2023/01/11 14:03:36;;;;;;;;;;;11.30;99.90;;;;;;4970575;28;19930;-72
2023/01/11 14:06:11;;;;;;;;;;;11.40;99.90;;;;;;4972404;28;19930;-73
2023/01/11 14:08:56;;;;;;;;;;;12.20;99.90;;;;;;4970408;28;19925;-72
2023/01/11 14:11:27;;;;;;;;;;;13.00;99.90;;;;;;4982897;28;20032;-72
2023/01/11 14:14:16;;;;;;;;;;;13.70;99.90;;;;;;4970895;28;19930;-73
2023/01/11 14:16:48;;;;;;;;;;;14.40;99.90;;;;;;4970440;28;19977;-72
2023/01/11 14:19:20;;;;;;;;;;;15.00;99.90;;;;;;4970267;28;19938;-73
2023/01/11 14:21:56;;;;;;;;;;;14.90;99.90;;;;;;4975669;28;19988;-72
2023/01/11 14:24:25;;;;;;;;;;;14.90;99.90;;;;;;4966732;28;19933;-72
2023/01/11 14:26:57;;;;;;;;;;;15.40;99.90;;;;;;4978846;28;20385;-73
2023/01/11 14:29:42;;;;;;;;;;;16.00;99.90;;;;;;4969944;28;19973;-72
2023/01/11 14:32:17;;;;;;;;;;;14.80;99.90;;;;;;4985027;28;19989;-72
2023/01/11 14:34:58;;;;;;;;;;;13.70;99.90;;;;;;4980426;28;19926;-70
2023/01/11 14:37:33;;;;;;;;;;;12.70;99.90;;;;;;4986825;28;20013;-73
2023/01/11 14:40:14;;;;;;;;;;;12.40;99.90;;;;;;4972962;28;19945;-73
2023/01/11 14:43:06;;;;;;;;;;;12.30;99.90;;;;;;4974101;28;20452;-72
2023/01/11 14:45:40;;;;;;;;;;;12.60;99.90;;;;;;4973749;28;19934;-72
2023/01/11 14:48:11;;;;;;;;;;;12.80;99.90;;;;;;4973921;28;19934;-72
2023/01/11 14:50:50;;;;;;;;;;;12.60;99.90;;;;;;4973934;28;20093;-72
2023/01/11 14:53:19;;;;;;;;;;;12.60;99.90;;;;;;4973668;28;19926;-72
2023/01/11 14:55:48;;;;;;;;;;;12.50;99.90;;;;;;4973780;28;19930;-73
2023/01/11 14:58:20;;;;;;;;;;;12.50;99.90;;;;;;4973787;28;20382;-71
2023/01/11 15:01:07;;;;;;;;;;;12.30;99.90;;;;;;4973350;28;19934;-71
2023/01/11 15:03:47;;;;;;;;;;;11.80;99.90;;;;;;4974807;28;19926;-72
2023/01/11 15:06:15;;;;;;;;;;;11.60;99.90;;;;;;4973556;28;19926;-72
2023/01/11 15:08:44;;;;;;;;;;;11.70;99.90;;;;;;4981591;28;20337;-71
2023/01/11 15:11:29;;;;;;;;;;;11.40;99.90;;;;;;4974245;28;19933;-72
2023/01/11 15:13:58;;;;;;;;;;;11.20;99.90;;;;;;4979417;28;19980;-72
2023/01/11 15:19:12;;;;;;;;;;;10.70;99.90;;;;;;4971949;28;19926;-72
2023/01/11 15:21:40;;;;;;;;;;;10.70;99.90;;;;;;4978098;28;20408;-72
2023/01/11 15:24:20;;;;;;;;;;;10.50;99.90;;;;;;4973249;28;19954;-75
2023/01/11 15:26:48;;;;;;;;;;;10.40;99.90;;;;;;4975914;28;19934;-73
2023/01/11 15:29:20;;;;;;;;;;;10.30;99.90;;;;;;4979996;28;19988;-75
2023/01/11 15:31:49;;;;;;;;;;;10.20;99.90;;;;;;4978990;28;19934;-74
2023/01/11 15:34:23;;;;;;;;;;;10.10;99.90;;;;;;4972845;28;19926;-74
2023/01/11 15:37:10;;;;;;;;;;;10.10;99.90;;;;;;4973528;28;19930;-75
2023/01/11 15:39:40;;;;;;;;;;;10.00;99.90;;;;;;4978521;28;19933;-75
2023/01/11 15:42:21;;;;;;;;;;;10.00;99.90;;;;;;4972643;28;19977;-75
2023/01/11 15:45:01;;;;;;;;;;;9.90;99.90;;;;;;4973211;28;19925;-74
2023/01/11 15:47:37;;;;;;;;;;;9.90;99.90;;;;;;4973431;28;20301;-74
2023/01/11 15:50:12;;;;;;;;;;;9.90;99.90;;;;;;4972316;28;19926;-74
2023/01/11 15:53:09;;;;;;;;;;;9.90;99.90;;;;;;4972945;28;19977;-74
2023/01/11 15:56:00;;;;;;;;;;;9.90;99.90;;;;;;4914212;29;19931;-72
2023/01/11 15:58:45;;;;;;;;;;;9.90;99.90;;;;;;4967369;28;19972;-72
2023/01/11 16:01:30;;;;;;;;;;;9.90;99.90;;;;;;4971907;28;19934;-81
2023/01/11 16:04:21;;;;;;;;;;;9.90;99.90;;;;;;4972668;28;19926;-74
2023/01/11 16:06:51;;;;;;;;;;;9.90;99.90;;;;;;4981682;28;19926;-79
2023/01/11 16:09:26;;;;;;;;;;;9.80;99.90;;;;;;4975137;28;20305;-71
2023/01/11 16:11:59;;;;;;;;;;;9.80;99.90;;;;;;4969838;28;19926;-72
2023/01/11 16:14:34;;;;;;;;;;;9.70;99.90;;;;;;4985347;28;19926;-71
2023/01/11 16:17:02;;;;;;;;;;;9.70;99.90;;;;;;4970312;28;19926;-72
2023/01/11 16:19:31;;;;;;;;;;;9.60;99.90;;;;;;4968819;28;19957;-70
2023/01/11 16:22:01;;;;;;;;;;;9.70;99.90;;;;;;4971570;28;20009;-71
2023/01/11 16:24:28;;;;;;;;;;;9.60;99.90;;;;;;4969648;28;20316;-71
2023/01/11 16:26:57;;;;;;;;;;;9.50;99.90;;;;;;4971139;28;19926;-72
2023/01/11 16:29:25;;;;;;;;;;;9.60;99.90;;;;;;4977512;28;19976;-71
2023/01/11 16:31:56;;;;;;;;;;;9.60;99.90;;;;;;4970835;28;19930;-71
2023/01/11 16:34:23;;;;;;;;;;;9.60;99.90;;;;;;4971405;28;19934;-71
2023/01/11 16:36:51;;;;;;;;;;;9.70;99.90;;;;;;4970030;28;19973;-71
2023/01/11 16:39:20;;;;;;;;;;;9.60;99.90;;;;;;4971357;28;19926;-72
2023/01/11 16:41:53;;;;;;;;;;;9.60;99.90;;;;;;4971641;28;19949;-71
2023/01/11 16:44:24;;;;;;;;;;;9.50;99.90;;;;;;4963992;28;19926;-71
2023/01/11 16:47:06;;;;;;;;;;;9.40;99.90;;;;;;4971681;28;20297;-71
2023/01/11 16:49:32;;;;;;;;;;;9.40;99.90;;;;;;4969830;28;19927;-76
2023/01/11 16:52:02;;;;;;;;;;;9.30;99.90;;;;;;4970657;28;20400;-76
2023/01/11 16:54:32;;;;;;;;;;;9.40;99.90;;;;;;4973787;28;19930;-77
2023/01/11 16:56:59;;;;;;;;;;;9.30;99.90;;;;;;4975256;28;19926;-77
2023/01/11 16:59:29;;;;;;;;;;;9.40;99.90;;;;;;4971333;28;19926;-78
2023/01/11 17:01:57;;;;;;;;;;;9.50;99.90;;;;;;4971225;28;19934;-77
2023/01/11 17:04:28;;;;;;;;;;;9.40;99.90;;;;;;4975255;28;20017;-76
2023/01/11 17:06:55;;;;;;;;;;;9.40;99.90;;;;;;4968565;28;19926;-80
2023/01/11 17:09:24;;;;;;;;;;;9.30;99.90;;;;;;4966522;28;19930;-69
2023/01/11 17:11:52;;;;;;;;;;;9.20;99.90;;;;;;4969454;28;20392;-70
2023/01/11 17:14:33;;;;;;;;;;;9.10;99.90;;;;;;4973970;28;19934;-69
2023/01/11 17:17:01;;;;;;;;;;;9.10;99.90;;;;;;4985840;28;19981;-69
2023/01/11 17:19:29;;;;;;;;;;;9.10;99.90;;;;;;4967667;28;19926;-70
2023/01/11 17:21:59;;;;;;;;;;;9.00;99.90;;;;;;4967751;28;20389;-69
2023/01/11 17:24:28;;;;;;;;;;;9.00;99.90;;;;;;4971322;28;19972;-69
2023/01/11 17:26:56;;;;;;;;;;;8.90;99.90;;;;;;4969694;28;19926;-69
2023/01/11 17:29:27;;;;;;;;;;;8.80;99.90;;;;;;4975266;28;19934;-69
2023/01/11 17:31:54;;;;;;;;;;;8.80;99.90;;;;;;4968708;28;19934;-70
2023/01/11 17:34:23;;;;;;;;;;;8.80;99.90;;;;;;4968561;28;19973;-69
2023/01/11 17:36:51;;;;;;;;;;;8.70;99.90;;;;;;4968100;28;20452;-70
2023/01/11 17:39:22;;;;;;;;;;;8.70;99.90;;;;;;4976053;28;19926;-69
2023/01/11 17:47:20;;;;;;;;;;;8.70;99.90;;;;;;4978244;28;19922;-68
2023/01/11 17:49:49;;;;;;;;;;;8.70;99.90;;;;;;4968416;28;19926;-74
2023/01/11 17:52:20;;;;;;;;;;;8.60;99.90;;;;;;4963576;28;19930;-72
2023/01/11 17:54:47;;;;;;;;;;;8.60;99.90;;;;;;4966483;28;19932;-68
2023/01/11 17:57:16;;;;;;;;;;;8.60;99.90;;;;;;4971265;28;19926;-68
2023/01/11 17:59:42;;;;;;;;;;;8.60;99.90;;;;;;4969686;28;19981;-68
2023/01/11 18:02:11;;;;;;;;;;;8.60;99.90;;;;;;4971835;28;20293;-67
2023/01/11 18:04:38;;;;;;;;;;;8.60;99.90;;;;;;4974188;28;19926;-68
2023/01/11 18:07:06;;;;;;;;;;;8.60;99.90;;;;;;4976097;28;19934;-67
2023/01/11 18:09:35;;;;;;;;;;;8.60;99.90;;;;;;4971918;28;19984;-69
2023/01/11 18:12:06;;;;;;;;;;;8.60;99.90;;;;;;4973192;28;19926;-68
2023/01/11 18:14:38;;;;;;;;;;;8.60;99.90;;;;;;4971787;28;20020;-68
2023/01/11 18:17:06;;;;;;;;;;;8.50;99.90;;;;;;4975550;28;19981;-69
2023/01/11 18:19:34;;;;;;;;;;;8.60;99.90;;;;;;4975081;28;19930;-68
2023/01/11 18:22:01;;;;;;;;;;;8.60;99.90;;;;;;4975121;28;19926;-68
2023/01/11 18:24:41;;;;;;;;;;;8.50;99.90;;;;;;4975221;28;19930;-68
2023/01/11 18:27:27;;;;;;;;;;;8.50;99.90;;;;;;4975743;28;19957;-68
2023/01/11 18:29:56;;;;;;;;;;;8.60;99.90;;;;;;4978179;28;19973;-68
2023/01/11 18:32:23;;;;;;;;;;;8.60;99.90;;;;;;4975281;28;19930;-69
2023/01/11 18:34:51;;;;;;;;;;;8.50;99.90;;;;;;4970437;28;19930;-68
2023/01/11 18:37:18;;;;;;;;;;;8.60;99.90;;;;;;4974989;28;19930;-68
2023/01/11 18:39:45;;;;;;;;;;;8.60;99.90;;;;;;4974382;28;19933;-68
2023/01/11 18:42:14;;;;;;;;;;;8.50;99.90;;;;;;4974888;28;19976;-68
2023/01/11 18:44:44;;;;;;;;;;;8.50;99.90;;;;;;4974980;28;20024;-68
2023/01/11 18:47:15;;;;;;;;;;;8.50;99.90;;;;;;4975340;28;19926;-67
2023/01/11 18:49:42;;;;;;;;;;;8.50;99.90;;;;;;4988193;28;19926;-69
2023/01/11 18:52:09;;;;;;;;;;;8.50;99.90;;;;;;4972991;28;19973;-69